sensor_id;sensor_type;location;lat;lon;timestamp;P1;durP1;ratioP1;P2;durP2;ratioP2
46507;SDS011;32223;53.654;10.014;2023-01-31T00:00:54;14.10;;;3.30;;
46507;SDS011;32223;53.654;10.014;2023-01-31T00:03:19;12.93;;;3.08;;
46507;SDS011;32223;53.654;10.014;2023-01-31T00:05:45;10.45;;;2.03;;
46507;SDS011;32223;53.654;10.014;2023-01-31T00:08:11;15.27;;;2.45;;
46507;SDS011;32223;53.654;10.014;2023-01-31T00:10:38;17.70;;;3.35;;
46507;SDS011;32223;53.654;10.014;2023-01-31T00:13:03;17.40;;;3.00;;
46507;SDS011;32223;53.654;10.014;2023-01-31T00:15:29;12.93;;;2.60;;
46507;SDS011;32223;53.654;10.014;2023-01-31T00:17:54;9.18;;;1.60;;
46507;SDS011;32223;53.654;10.014;2023-01-31T00:20:20;14.70;;;3.15;;
46507;SDS011;32223;53.654;10.014;2023-01-31T00:22:46;21.58;;;2.30;;
46507;SDS011;32223;53.654;10.014;2023-01-31T00:25:11;12.63;;;2.20;;
46507;SDS011;32223;53.654;10.014;2023-01-31T00:27:37;9.40;;;3.78;;
46507;SDS011;32223;53.654;10.014;2023-01-31T00:30:02;19.33;;;2.10;;
46507;SDS011;32223;53.654;10.014;2023-01-31T00:32:28;9.27;;;2.15;;
46507;SDS011;32223;53.654;10.014;2023-01-31T00:34:54;7.75;;;2.45;;
46507;SDS011;32223;53.654;10.014;2023-01-31T00:37:20;9.25;;;1.80;;
46507;SDS011;32223;53.654;10.014;2023-01-31T00:39:46;7.22;;;1.30;;
46507;SDS011;32223;53.654;10.014;2023-01-31T00:42:11;6.47;;;1.25;;
46507;SDS011;32223;53.654;10.014;2023-01-31T00:44:37;7.65;;;1.77;;
46507;SDS011;32223;53.654;10.014;2023-01-31T00:47:03;6.90;;;1.75;;
46507;SDS011;32223;53.654;10.014;2023-01-31T00:49:29;12.15;;;1.70;;
46507;SDS011;32223;53.654;10.014;2023-01-31T00:51:54;10.63;;;1.90;;
46507;SDS011;32223;53.654;10.014;2023-01-31T00:54:20;6.90;;;1.35;;
46507;SDS011;32223;53.654;10.014;2023-01-31T00:56:46;6.43;;;2.05;;
46507;SDS011;32223;53.654;10.014;2023-01-31T00:59:11;9.75;;;4.30;;
46507;SDS011;32223;53.654;10.014;2023-01-31T01:01:37;5.70;;;2.30;;
46507;SDS011;32223;53.654;10.014;2023-01-31T01:04:03;8.55;;;1.73;;
46507;SDS011;32223;53.654;10.014;2023-01-31T01:06:29;12.85;;;2.75;;
46507;SDS011;32223;53.654;10.014;2023-01-31T01:08:55;10.02;;;2.30;;
46507;SDS011;32223;53.654;10.014;2023-01-31T01:11:29;9.77;;;1.70;;
46507;SDS011;32223;53.654;10.014;2023-01-31T01:13:56;11.88;;;1.90;;
46507;SDS011;32223;53.654;10.014;2023-01-31T01:16:24;9.63;;;1.33;;
46507;SDS011;32223;53.654;10.014;2023-01-31T01:18:54;12.05;;;2.17;;
46507;SDS011;32223;53.654;10.014;2023-01-31T01:21:21;11.45;;;2.25;;
46507;SDS011;32223;53.654;10.014;2023-01-31T01:23:55;8.48;;;2.50;;
46507;SDS011;32223;53.654;10.014;2023-01-31T01:26:27;8.88;;;2.20;;
46507;SDS011;32223;53.654;10.014;2023-01-31T01:28:56;7.28;;;1.70;;
46507;SDS011;32223;53.654;10.014;2023-01-31T01:31:22;15.35;;;1.98;;
46507;SDS011;32223;53.654;10.014;2023-01-31T01:33:54;12.90;;;2.15;;
46507;SDS011;32223;53.654;10.014;2023-01-31T01:36:22;10.10;;;2.05;;
46507;SDS011;32223;53.654;10.014;2023-01-31T01:38:50;6.22;;;1.52;;
46507;SDS011;32223;53.654;10.014;2023-01-31T01:41:16;10.55;;;2.05;;
46507;SDS011;32223;53.654;10.014;2023-01-31T01:43:53;8.02;;;2.28;;
46507;SDS011;32223;53.654;10.014;2023-01-31T01:46:40;11.77;;;1.52;;
46507;SDS011;32223;53.654;10.014;2023-01-31T01:51:44;10.43;;;2.58;;
46507;SDS011;32223;53.654;10.014;2023-01-31T01:54:14;9.05;;;2.10;;
46507;SDS011;32223;53.654;10.014;2023-01-31T01:56:45;10.63;;;2.88;;
46507;SDS011;32223;53.654;10.014;2023-01-31T01:59:16;15.38;;;2.63;;
46507;SDS011;32223;53.654;10.014;2023-01-31T02:01:47;10.20;;;2.08;;
46507;SDS011;32223;53.654;10.014;2023-01-31T02:04:15;13.18;;;2.72;;
46507;SDS011;32223;53.654;10.014;2023-01-31T02:06:45;12.20;;;2.05;;
46507;SDS011;32223;53.654;10.014;2023-01-31T02:11:55;11.38;;;2.22;;
46507;SDS011;32223;53.654;10.014;2023-01-31T02:14:22;15.25;;;2.08;;
46507;SDS011;32223;53.654;10.014;2023-01-31T02:16:48;11.98;;;1.88;;
46507;SDS011;32223;53.654;10.014;2023-01-31T02:19:50;11.82;;;2.42;;
46507;SDS011;32223;53.654;10.014;2023-01-31T02:48:27;14.82;;;3.20;;
46507;SDS011;32223;53.654;10.014;2023-01-31T02:53:55;12.13;;;1.80;;
46507;SDS011;32223;53.654;10.014;2023-01-31T02:56:30;17.30;;;3.55;;
46507;SDS011;32223;53.654;10.014;2023-01-31T02:59:01;15.13;;;3.03;;
46507;SDS011;32223;53.654;10.014;2023-01-31T03:01:38;8.02;;;2.10;;
46507;SDS011;32223;53.654;10.014;2023-01-31T03:04:07;10.68;;;2.47;;
46507;SDS011;32223;53.654;10.014;2023-01-31T03:12:31;12.57;;;2.40;;
46507;SDS011;32223;53.654;10.014;2023-01-31T03:14:43;9.27;;;2.05;;
46507;SDS011;32223;53.654;10.014;2023-01-31T03:23:20;9.52;;;2.67;;
46507;SDS011;32223;53.654;10.014;2023-01-31T03:25:48;11.18;;;2.28;;
46507;SDS011;32223;53.654;10.014;2023-01-31T03:28:17;14.23;;;4.20;;
46507;SDS011;32223;53.654;10.014;2023-01-31T03:30:47;13.52;;;2.03;;
46507;SDS011;32223;53.654;10.014;2023-01-31T03:33:22;15.90;;;1.83;;
46507;SDS011;32223;53.654;10.014;2023-01-31T03:39:02;9.68;;;2.05;;
46507;SDS011;32223;53.654;10.014;2023-01-31T03:41:41;16.10;;;2.33;;
46507;SDS011;32223;53.654;10.014;2023-01-31T03:44:23;15.32;;;2.25;;
46507;SDS011;32223;53.654;10.014;2023-01-31T03:46:54;10.60;;;2.40;;
46507;SDS011;32223;53.654;10.014;2023-01-31T03:49:30;7.47;;;2.45;;
46507;SDS011;32223;53.654;10.014;2023-01-31T03:51:59;15.27;;;2.20;;
46507;SDS011;32223;53.654;10.014;2023-01-31T03:54:33;10.00;;;2.08;;
46507;SDS011;32223;53.654;10.014;2023-01-31T03:57:07;13.02;;;2.40;;
46507;SDS011;32223;53.654;10.014;2023-01-31T03:59:44;11.52;;;1.70;;
46507;SDS011;32223;53.654;10.014;2023-01-31T04:02:14;8.80;;;2.13;;
46507;SDS011;32223;53.654;10.014;2023-01-31T04:04:43;9.63;;;2.50;;
46507;SDS011;32223;53.654;10.014;2023-01-31T04:07:14;12.57;;;3.20;;
46507;SDS011;32223;53.654;10.014;2023-01-31T04:09:39;13.93;;;2.80;;
46507;SDS011;32223;53.654;10.014;2023-01-31T04:12:05;15.52;;;2.35;;
46507;SDS011;32223;53.654;10.014;2023-01-31T04:14:31;14.65;;;2.17;;
46507;SDS011;32223;53.654;10.014;2023-01-31T04:16:56;18.42;;;3.10;;
46507;SDS011;32223;53.654;10.014;2023-01-31T04:19:22;13.23;;;2.60;;
46507;SDS011;32223;53.654;10.014;2023-01-31T04:21:47;12.70;;;3.15;;
46507;SDS011;32223;53.654;10.014;2023-01-31T04:24:13;15.27;;;2.97;;
46507;SDS011;32223;53.654;10.014;2023-01-31T04:26:39;22.42;;;4.47;;
46507;SDS011;32223;53.654;10.014;2023-01-31T04:29:04;18.73;;;5.32;;
46507;SDS011;32223;53.654;10.014;2023-01-31T04:31:30;13.32;;;3.30;;
46507;SDS011;32223;53.654;10.014;2023-01-31T04:33:56;17.85;;;2.58;;
46507;SDS011;32223;53.654;10.014;2023-01-31T04:36:22;19.05;;;3.05;;
46507;SDS011;32223;53.654;10.014;2023-01-31T04:38:48;10.32;;;2.30;;
46507;SDS011;32223;53.654;10.014;2023-01-31T04:41:14;18.85;;;3.33;;
46507;SDS011;32223;53.654;10.014;2023-01-31T04:43:40;12.00;;;2.20;;
46507;SDS011;32223;53.654;10.014;2023-01-31T04:46:05;17.02;;;3.88;;
46507;SDS011;32223;53.654;10.014;2023-01-31T04:48:31;14.48;;;4.28;;
46507;SDS011;32223;53.654;10.014;2023-01-31T04:50:57;7.63;;;2.45;;
46507;SDS011;32223;53.654;10.014;2023-01-31T04:53:22;15.40;;;2.88;;
46507;SDS011;32223;53.654;10.014;2023-01-31T04:55:48;11.20;;;3.17;;
46507;SDS011;32223;53.654;10.014;2023-01-31T04:58:14;9.05;;;2.90;;
46507;SDS011;32223;53.654;10.014;2023-01-31T05:00:40;16.50;;;3.05;;
46507;SDS011;32223;53.654;10.014;2023-01-31T05:03:05;12.20;;;2.85;;
46507;SDS011;32223;53.654;10.014;2023-01-31T05:05:31;26.15;;;4.45;;
46507;SDS011;32223;53.654;10.014;2023-01-31T05:07:57;11.60;;;2.67;;
46507;SDS011;32223;53.654;10.014;2023-01-31T05:10:23;9.38;;;3.13;;
46507;SDS011;32223;53.654;10.014;2023-01-31T05:12:48;14.57;;;3.03;;
46507;SDS011;32223;53.654;10.014;2023-01-31T05:15:14;10.52;;;2.35;;
46507;SDS011;32223;53.654;10.014;2023-01-31T05:17:40;12.80;;;2.92;;
46507;SDS011;32223;53.654;10.014;2023-01-31T05:20:05;14.93;;;3.17;;
46507;SDS011;32223;53.654;10.014;2023-01-31T05:22:32;15.02;;;2.55;;
46507;SDS011;32223;53.654;10.014;2023-01-31T05:24:58;8.57;;;2.90;;
46507;SDS011;32223;53.654;10.014;2023-01-31T05:27:23;10.63;;;1.83;;
46507;SDS011;32223;53.654;10.014;2023-01-31T05:29:50;12.73;;;3.40;;
46507;SDS011;32223;53.654;10.014;2023-01-31T05:32:15;18.13;;;1.88;;
46507;SDS011;32223;53.654;10.014;2023-01-31T05:34:43;17.40;;;2.55;;
46507;SDS011;32223;53.654;10.014;2023-01-31T05:37:08;11.18;;;2.20;;
46507;SDS011;32223;53.654;10.014;2023-01-31T05:39:34;13.40;;;3.72;;
46507;SDS011;32223;53.654;10.014;2023-01-31T05:42:00;13.70;;;2.70;;
46507;SDS011;32223;53.654;10.014;2023-01-31T05:44:26;12.63;;;2.83;;
46507;SDS011;32223;53.654;10.014;2023-01-31T05:46:51;13.20;;;2.30;;
46507;SDS011;32223;53.654;10.014;2023-01-31T05:49:17;16.08;;;2.47;;
46507;SDS011;32223;53.654;10.014;2023-01-31T05:51:43;24.70;;;2.92;;
46507;SDS011;32223;53.654;10.014;2023-01-31T05:54:09;16.52;;;2.90;;
46507;SDS011;32223;53.654;10.014;2023-01-31T05:56:36;16.55;;;3.47;;
46507;SDS011;32223;53.654;10.014;2023-01-31T05:59:03;18.23;;;3.72;;
46507;SDS011;32223;53.654;10.014;2023-01-31T06:01:28;14.15;;;3.50;;
46507;SDS011;32223;53.654;10.014;2023-01-31T06:03:54;20.85;;;2.47;;
46507;SDS011;32223;53.654;10.014;2023-01-31T06:06:20;13.77;;;2.70;;
46507;SDS011;32223;53.654;10.014;2023-01-31T06:08:46;14.25;;;2.90;;
46507;SDS011;32223;53.654;10.014;2023-01-31T06:11:12;16.05;;;3.00;;
46507;SDS011;32223;53.654;10.014;2023-01-31T06:13:39;24.17;;;2.88;;
46507;SDS011;32223;53.654;10.014;2023-01-31T06:16:07;13.73;;;2.67;;
46507;SDS011;32223;53.654;10.014;2023-01-31T06:18:33;16.33;;;2.58;;
46507;SDS011;32223;53.654;10.014;2023-01-31T06:20:59;25.70;;;4.07;;
46507;SDS011;32223;53.654;10.014;2023-01-31T06:23:24;21.80;;;4.05;;
46507;SDS011;32223;53.654;10.014;2023-01-31T06:25:50;15.38;;;3.42;;
46507;SDS011;32223;53.654;10.014;2023-01-31T06:28:17;15.65;;;2.90;;
46507;SDS011;32223;53.654;10.014;2023-01-31T06:30:43;21.30;;;2.58;;
46507;SDS011;32223;53.654;10.014;2023-01-31T06:33:09;15.93;;;3.63;;
46507;SDS011;32223;53.654;10.014;2023-01-31T06:35:35;18.95;;;4.30;;
46507;SDS011;32223;53.654;10.014;2023-01-31T06:38:01;18.45;;;4.20;;
46507;SDS011;32223;53.654;10.014;2023-01-31T06:40:27;24.45;;;4.18;;
46507;SDS011;32223;53.654;10.014;2023-01-31T06:42:52;10.48;;;2.65;;
46507;SDS011;32223;53.654;10.014;2023-01-31T06:45:18;15.57;;;3.40;;
46507;SDS011;32223;53.654;10.014;2023-01-31T06:47:44;18.02;;;2.70;;
46507;SDS011;32223;53.654;10.014;2023-01-31T06:50:10;21.25;;;3.55;;
46507;SDS011;32223;53.654;10.014;2023-01-31T06:52:36;15.52;;;3.20;;
46507;SDS011;32223;53.654;10.014;2023-01-31T06:55:02;24.48;;;3.92;;
46507;SDS011;32223;53.654;10.014;2023-01-31T06:57:28;13.27;;;3.30;;
46507;SDS011;32223;53.654;10.014;2023-01-31T06:59:53;19.33;;;2.78;;
46507;SDS011;32223;53.654;10.014;2023-01-31T07:02:19;12.98;;;3.42;;
46507;SDS011;32223;53.654;10.014;2023-01-31T07:04:45;19.38;;;2.65;;
46507;SDS011;32223;53.654;10.014;2023-01-31T07:07:10;13.85;;;4.00;;
46507;SDS011;32223;53.654;10.014;2023-01-31T07:09:36;20.83;;;2.85;;
46507;SDS011;32223;53.654;10.014;2023-01-31T07:12:01;18.10;;;3.42;;
46507;SDS011;32223;53.654;10.014;2023-01-31T07:14:27;16.45;;;3.22;;
46507;SDS011;32223;53.654;10.014;2023-01-31T07:16:53;16.30;;;2.67;;
46507;SDS011;32223;53.654;10.014;2023-01-31T07:19:18;15.70;;;3.13;;
46507;SDS011;32223;53.654;10.014;2023-01-31T07:21:44;18.58;;;2.80;;
46507;SDS011;32223;53.654;10.014;2023-01-31T07:24:11;13.82;;;4.57;;
46507;SDS011;32223;53.654;10.014;2023-01-31T07:26:36;11.35;;;2.65;;
46507;SDS011;32223;53.654;10.014;2023-01-31T07:29:02;21.45;;;4.15;;
46507;SDS011;32223;53.654;10.014;2023-01-31T07:31:27;22.25;;;3.58;;
46507;SDS011;32223;53.654;10.014;2023-01-31T07:33:53;18.88;;;4.40;;
46507;SDS011;32223;53.654;10.014;2023-01-31T07:36:19;16.92;;;4.60;;
46507;SDS011;32223;53.654;10.014;2023-01-31T07:38:51;14.93;;;3.42;;
46507;SDS011;32223;53.654;10.014;2023-01-31T07:41:18;24.83;;;4.28;;
46507;SDS011;32223;53.654;10.014;2023-01-31T07:43:44;19.58;;;3.95;;
46507;SDS011;32223;53.654;10.014;2023-01-31T07:46:10;18.83;;;4.32;;
46507;SDS011;32223;53.654;10.014;2023-01-31T07:48:36;19.38;;;3.88;;
46507;SDS011;32223;53.654;10.014;2023-01-31T07:51:02;11.23;;;3.53;;
46507;SDS011;32223;53.654;10.014;2023-01-31T07:53:29;26.02;;;4.45;;
46507;SDS011;32223;53.654;10.014;2023-01-31T07:56:15;14.10;;;4.80;;
46507;SDS011;32223;53.654;10.014;2023-01-31T07:58:45;23.67;;;5.13;;
46507;SDS011;32223;53.654;10.014;2023-01-31T08:01:13;19.40;;;4.00;;
46507;SDS011;32223;53.654;10.014;2023-01-31T08:04:06;20.83;;;5.65;;
46507;SDS011;32223;53.654;10.014;2023-01-31T08:06:32;19.30;;;5.25;;
46507;SDS011;32223;53.654;10.014;2023-01-31T08:08:59;14.23;;;3.92;;
46507;SDS011;32223;53.654;10.014;2023-01-31T08:11:24;19.50;;;5.82;;
46507;SDS011;32223;53.654;10.014;2023-01-31T08:13:50;15.45;;;4.15;;
46507;SDS011;32223;53.654;10.014;2023-01-31T08:16:17;18.05;;;4.95;;
46507;SDS011;32223;53.654;10.014;2023-01-31T08:18:44;12.32;;;3.90;;
46507;SDS011;32223;53.654;10.014;2023-01-31T08:21:10;26.00;;;5.22;;
46507;SDS011;32223;53.654;10.014;2023-01-31T08:23:36;15.05;;;4.53;;
46507;SDS011;32223;53.654;10.014;2023-01-31T08:26:07;22.15;;;5.90;;
46507;SDS011;32223;53.654;10.014;2023-01-31T08:28:36;20.90;;;5.63;;
46507;SDS011;32223;53.654;10.014;2023-01-31T08:31:02;20.48;;;5.13;;
46507;SDS011;32223;53.654;10.014;2023-01-31T08:33:28;18.08;;;4.97;;
46507;SDS011;32223;53.654;10.014;2023-01-31T08:35:54;17.40;;;4.88;;
46507;SDS011;32223;53.654;10.014;2023-01-31T08:38:19;24.20;;;5.57;;
46507;SDS011;32223;53.654;10.014;2023-01-31T08:40:45;21.55;;;4.93;;
46507;SDS011;32223;53.654;10.014;2023-01-31T08:43:11;17.27;;;6.25;;
46507;SDS011;32223;53.654;10.014;2023-01-31T08:45:37;19.05;;;5.55;;
46507;SDS011;32223;53.654;10.014;2023-01-31T08:48:03;15.55;;;4.25;;
46507;SDS011;32223;53.654;10.014;2023-01-31T08:50:29;15.98;;;4.32;;
46507;SDS011;32223;53.654;10.014;2023-01-31T08:52:57;20.85;;;4.65;;
46507;SDS011;32223;53.654;10.014;2023-01-31T08:55:27;19.00;;;4.85;;
46507;SDS011;32223;53.654;10.014;2023-01-31T08:57:54;14.82;;;4.85;;
46507;SDS011;32223;53.654;10.014;2023-01-31T09:00:20;20.27;;;5.63;;
46507;SDS011;32223;53.654;10.014;2023-01-31T09:02:52;20.05;;;5.05;;
46507;SDS011;32223;53.654;10.014;2023-01-31T09:05:18;18.65;;;4.93;;
46507;SDS011;32223;53.654;10.014;2023-01-31T09:07:44;16.40;;;5.82;;
46507;SDS011;32223;53.654;10.014;2023-01-31T09:10:10;21.92;;;5.18;;
46507;SDS011;32223;53.654;10.014;2023-01-31T09:12:36;25.77;;;6.68;;
46507;SDS011;32223;53.654;10.014;2023-01-31T09:15:02;17.38;;;6.57;;
46507;SDS011;32223;53.654;10.014;2023-01-31T09:17:28;17.13;;;4.65;;
46507;SDS011;32223;53.654;10.014;2023-01-31T09:19:54;18.50;;;5.30;;
46507;SDS011;32223;53.654;10.014;2023-01-31T09:22:21;15.13;;;5.03;;
46507;SDS011;32223;53.654;10.014;2023-01-31T09:24:46;18.40;;;5.32;;
46507;SDS011;32223;53.654;10.014;2023-01-31T09:27:12;20.00;;;5.95;;
46507;SDS011;32223;53.654;10.014;2023-01-31T09:29:38;13.32;;;5.53;;
46507;SDS011;32223;53.654;10.014;2023-01-31T09:32:04;25.80;;;5.55;;
46507;SDS011;32223;53.654;10.014;2023-01-31T09:34:29;20.20;;;5.38;;
46507;SDS011;32223;53.654;10.014;2023-01-31T09:36:56;20.42;;;6.05;;
46507;SDS011;32223;53.654;10.014;2023-01-31T09:39:22;26.58;;;6.00;;
46507;SDS011;32223;53.654;10.014;2023-01-31T09:42:01;21.52;;;5.03;;
46507;SDS011;32223;53.654;10.014;2023-01-31T09:44:32;13.23;;;5.85;;
46507;SDS011;32223;53.654;10.014;2023-01-31T09:47:09;20.45;;;5.63;;
46507;SDS011;32223;53.654;10.014;2023-01-31T09:52:30;14.57;;;5.70;;
46507;SDS011;32223;53.654;10.014;2023-01-31T09:54:56;15.15;;;5.72;;
46507;SDS011;32223;53.654;10.014;2023-01-31T10:00:15;28.80;;;11.68;;
46507;SDS011;32223;53.654;10.014;2023-01-31T10:03:11;22.83;;;7.47;;
46507;SDS011;32223;53.654;10.014;2023-01-31T10:05:47;13.82;;;5.07;;
46507;SDS011;32223;53.654;10.014;2023-01-31T10:08:41;17.45;;;6.68;;
46507;SDS011;32223;53.654;10.014;2023-01-31T10:11:50;16.05;;;6.82;;
46507;SDS011;32223;53.654;10.014;2023-01-31T10:14:39;14.02;;;5.85;;
46507;SDS011;32223;53.654;10.014;2023-01-31T10:17:28;16.15;;;6.43;;
46507;SDS011;32223;53.654;10.014;2023-01-31T10:22:55;17.13;;;5.47;;
46507;SDS011;32223;53.654;10.014;2023-01-31T10:25:37;13.27;;;5.90;;
46507;SDS011;32223;53.654;10.014;2023-01-31T10:28:48;12.05;;;6.25;;
46507;SDS011;32223;53.654;10.014;2023-01-31T10:36:56;14.98;;;4.97;;
46507;SDS011;32223;53.654;10.014;2023-01-31T10:39:27;14.18;;;5.00;;
46507;SDS011;32223;53.654;10.014;2023-01-31T10:47:14;17.20;;;5.25;;
46507;SDS011;32223;53.654;10.014;2023-01-31T10:49:43;16.67;;;5.35;;
46507;SDS011;32223;53.654;10.014;2023-01-31T10:55:23;14.88;;;5.82;;
46507;SDS011;32223;53.654;10.014;2023-01-31T10:58:03;16.60;;;5.70;;
46507;SDS011;32223;53.654;10.014;2023-01-31T11:00:31;14.90;;;6.05;;
46507;SDS011;32223;53.654;10.014;2023-01-31T11:02:58;12.25;;;4.97;;
46507;SDS011;32223;53.654;10.014;2023-01-31T11:05:24;12.68;;;5.63;;
46507;SDS011;32223;53.654;10.014;2023-01-31T11:07:54;13.82;;;4.35;;
46507;SDS011;32223;53.654;10.014;2023-01-31T11:10:26;13.23;;;4.43;;
46507;SDS011;32223;53.654;10.014;2023-01-31T11:13:02;15.98;;;6.40;;
46507;SDS011;32223;53.654;10.014;2023-01-31T11:15:35;16.15;;;5.80;;
46507;SDS011;32223;53.654;10.014;2023-01-31T11:18:04;12.32;;;5.43;;
46507;SDS011;32223;53.654;10.014;2023-01-31T11:20:35;15.55;;;5.32;;
46507;SDS011;32223;53.654;10.014;2023-01-31T11:23:09;15.30;;;5.57;;
46507;SDS011;32223;53.654;10.014;2023-01-31T11:25:45;10.35;;;5.18;;
46507;SDS011;32223;53.654;10.014;2023-01-31T11:28:21;10.77;;;4.78;;
46507;SDS011;32223;53.654;10.014;2023-01-31T11:31:02;11.73;;;4.72;;
46507;SDS011;32223;53.654;10.014;2023-01-31T11:33:44;11.20;;;4.93;;
46507;SDS011;32223;53.654;10.014;2023-01-31T11:36:19;13.38;;;4.70;;
46507;SDS011;32223;53.654;10.014;2023-01-31T11:38:47;11.57;;;4.43;;
46507;SDS011;32223;53.654;10.014;2023-01-31T11:44:12;11.38;;;5.15;;
46507;SDS011;32223;53.654;10.014;2023-01-31T11:47:02;14.00;;;4.28;;
46507;SDS011;32223;53.654;10.014;2023-01-31T11:49:36;12.10;;;4.32;;
46507;SDS011;32223;53.654;10.014;2023-01-31T11:52:13;9.43;;;3.67;;
46507;SDS011;32223;53.654;10.014;2023-01-31T11:54:42;9.07;;;4.20;;
46507;SDS011;32223;53.654;10.014;2023-01-31T11:57:14;15.15;;;3.83;;
46507;SDS011;32223;53.654;10.014;2023-01-31T11:59:41;11.18;;;3.95;;
46507;SDS011;32223;53.654;10.014;2023-01-31T12:02:13;9.98;;;3.38;;
46507;SDS011;32223;53.654;10.014;2023-01-31T12:04:47;7.20;;;3.65;;
46507;SDS011;32223;53.654;10.014;2023-01-31T12:07:47;6.63;;;3.10;;
46507;SDS011;32223;53.654;10.014;2023-01-31T12:13:10;5.93;;;2.50;;
46507;SDS011;32223;53.654;10.014;2023-01-31T12:15:45;4.90;;;2.50;;
46507;SDS011;32223;53.654;10.014;2023-01-31T12:18:16;6.38;;;2.50;;
46507;SDS011;32223;53.654;10.014;2023-01-31T12:20:55;8.20;;;3.17;;
46507;SDS011;32223;53.654;10.014;2023-01-31T12:23:52;4.60;;;2.03;;
46507;SDS011;32223;53.654;10.014;2023-01-31T12:51:02;4.13;;;1.55;;
46507;SDS011;32223;53.654;10.014;2023-01-31T12:56:46;3.40;;;1.27;;
46507;SDS011;32223;53.654;10.014;2023-01-31T13:05:00;1.98;;;0.82;;
46507;SDS011;32223;53.654;10.014;2023-01-31T13:07:40;2.67;;;1.10;;
46507;SDS011;32223;53.654;10.014;2023-01-31T13:10:25;4.75;;;1.35;;
46507;SDS011;32223;53.654;10.014;2023-01-31T13:13:00;4.47;;;2.10;;
46507;SDS011;32223;53.654;10.014;2023-01-31T13:15:37;3.15;;;1.30;;
46507;SDS011;32223;53.654;10.014;2023-01-31T13:18:08;3.63;;;1.40;;
46507;SDS011;32223;53.654;10.014;2023-01-31T13:20:37;3.03;;;1.73;;
46507;SDS011;32223;53.654;10.014;2023-01-31T13:23:12;6.85;;;1.95;;
46507;SDS011;32223;53.654;10.014;2023-01-31T13:25:50;3.97;;;1.40;;
46507;SDS011;32223;53.654;10.014;2023-01-31T13:29:02;5.80;;;1.83;;
46507;SDS011;32223;53.654;10.014;2023-01-31T13:31:32;4.13;;;1.90;;
46507;SDS011;32223;53.654;10.014;2023-01-31T13:36:35;7.13;;;2.20;;
46507;SDS011;32223;53.654;10.014;2023-01-31T13:39:18;7.82;;;2.83;;
46507;SDS011;32223;53.654;10.014;2023-01-31T13:41:50;13.50;;;2.28;;
46507;SDS011;32223;53.654;10.014;2023-01-31T13:44:16;13.20;;;2.63;;
46507;SDS011;32223;53.654;10.014;2023-01-31T13:47:00;16.10;;;2.83;;
46507;SDS011;32223;53.654;10.014;2023-01-31T13:49:33;7.60;;;2.30;;
46507;SDS011;32223;53.654;10.014;2023-01-31T13:52:08;7.88;;;2.80;;
46507;SDS011;32223;53.654;10.014;2023-01-31T13:54:43;12.77;;;3.95;;
46507;SDS011;32223;53.654;10.014;2023-01-31T13:57:31;11.10;;;3.03;;
46507;SDS011;32223;53.654;10.014;2023-01-31T14:03:02;13.50;;;2.55;;
46507;SDS011;32223;53.654;10.014;2023-01-31T14:10:59;16.00;;;3.35;;
46507;SDS011;32223;53.654;10.014;2023-01-31T14:15:58;13.05;;;3.00;;
46507;SDS011;32223;53.654;10.014;2023-01-31T14:18:40;11.93;;;3.13;;
46507;SDS011;32223;53.654;10.014;2023-01-31T14:29:12;11.25;;;2.95;;
46507;SDS011;32223;53.654;10.014;2023-01-31T14:34:18;11.50;;;3.67;;
46507;SDS011;32223;53.654;10.014;2023-01-31T14:45:40;9.37;;;2.93;;
46507;SDS011;32223;53.654;10.014;2023-01-31T14:48:31;13.30;;;3.50;;
46507;SDS011;32223;53.654;10.014;2023-01-31T14:54:33;12.63;;;2.55;;
46507;SDS011;32223;53.654;10.014;2023-01-31T14:57:15;10.18;;;3.58;;
46507;SDS011;32223;53.654;10.014;2023-01-31T15:00:28;8.73;;;2.80;;
46507;SDS011;32223;53.654;10.014;2023-01-31T15:03:02;11.25;;;3.28;;
46507;SDS011;32223;53.654;10.014;2023-01-31T15:16:18;24.92;;;5.07;;
46507;SDS011;32223;53.654;10.014;2023-01-31T15:18:49;13.50;;;4.25;;
46507;SDS011;32223;53.654;10.014;2023-01-31T15:21:29;13.85;;;3.28;;
46507;SDS011;32223;53.654;10.014;2023-01-31T15:24:21;16.73;;;3.97;;
46507;SDS011;32223;53.654;10.014;2023-01-31T15:27:18;14.20;;;4.13;;
46507;SDS011;32223;53.654;10.014;2023-01-31T15:32:35;15.45;;;3.20;;
46507;SDS011;32223;53.654;10.014;2023-01-31T15:37:57;13.18;;;3.92;;
46507;SDS011;32223;53.654;10.014;2023-01-31T15:40:27;21.50;;;4.70;;
46507;SDS011;32223;53.654;10.014;2023-01-31T15:43:13;26.58;;;5.03;;
46507;SDS011;32223;53.654;10.014;2023-01-31T15:45:47;15.23;;;3.63;;
46507;SDS011;32223;53.654;10.014;2023-01-31T15:48:16;21.15;;;3.90;;
46507;SDS011;32223;53.654;10.014;2023-01-31T15:50:50;20.33;;;5.05;;
46507;SDS011;32223;53.654;10.014;2023-01-31T15:53:20;18.87;;;5.03;;
46507;SDS011;32223;53.654;10.014;2023-01-31T15:55:54;13.35;;;3.55;;
46507;SDS011;32223;53.654;10.014;2023-01-31T15:58:22;13.45;;;3.58;;
46507;SDS011;32223;53.654;10.014;2023-01-31T16:00:54;21.67;;;3.65;;
46507;SDS011;32223;53.654;10.014;2023-01-31T16:03:27;19.92;;;4.70;;
46507;SDS011;32223;53.654;10.014;2023-01-31T16:05:55;20.33;;;3.97;;
46507;SDS011;32223;53.654;10.014;2023-01-31T16:08:32;19.73;;;2.85;;
46507;SDS011;32223;53.654;10.014;2023-01-31T16:11:00;15.50;;;4.00;;
46507;SDS011;32223;53.654;10.014;2023-01-31T16:13:35;17.50;;;3.60;;
46507;SDS011;32223;53.654;10.014;2023-01-31T16:16:06;12.38;;;1.65;;
46507;SDS011;32223;53.654;10.014;2023-01-31T16:18:34;5.25;;;1.13;;
46507;SDS011;32223;53.654;10.014;2023-01-31T16:26:39;6.18;;;1.65;;
46507;SDS011;32223;53.654;10.014;2023-01-31T16:31:45;5.13;;;1.02;;
46507;SDS011;32223;53.654;10.014;2023-01-31T16:34:19;5.22;;;1.35;;
46507;SDS011;32223;53.654;10.014;2023-01-31T16:36:51;4.20;;;1.20;;
46507;SDS011;32223;53.654;10.014;2023-01-31T16:39:31;4.38;;;1.00;;
46507;SDS011;32223;53.654;10.014;2023-01-31T16:44:45;18.02;;;4.43;;
46507;SDS011;32223;53.654;10.014;2023-01-31T16:47:53;13.75;;;2.50;;
46507;SDS011;32223;53.654;10.014;2023-01-31T16:50:21;11.13;;;1.95;;
46507;SDS011;32223;53.654;10.014;2023-01-31T16:56:32;10.70;;;2.42;;
46507;SDS011;32223;53.654;10.014;2023-01-31T16:58:43;12.40;;;2.20;;
46507;SDS011;32223;53.654;10.014;2023-01-31T17:01:12;17.10;;;3.10;;
46507;SDS011;32223;53.654;10.014;2023-01-31T17:03:40;19.75;;;2.83;;
46507;SDS011;32223;53.654;10.014;2023-01-31T17:06:06;17.40;;;3.17;;
46507;SDS011;32223;53.654;10.014;2023-01-31T17:08:38;15.00;;;3.40;;
46507;SDS011;32223;53.654;10.014;2023-01-31T17:11:06;16.33;;;3.00;;
46507;SDS011;32223;53.654;10.014;2023-01-31T17:13:35;19.73;;;3.72;;
46507;SDS011;32223;53.654;10.014;2023-01-31T17:16:01;16.27;;;3.92;;
46507;SDS011;32223;53.654;10.014;2023-01-31T17:18:26;21.70;;;4.30;;
46507;SDS011;32223;53.654;10.014;2023-01-31T17:20:52;19.48;;;3.83;;
46507;SDS011;32223;53.654;10.014;2023-01-31T17:23:17;19.42;;;4.45;;
46507;SDS011;32223;53.654;10.014;2023-01-31T17:25:43;16.90;;;3.55;;
46507;SDS011;32223;53.654;10.014;2023-01-31T17:28:09;21.58;;;4.13;;
46507;SDS011;32223;53.654;10.014;2023-01-31T17:30:39;19.48;;;4.07;;
46507;SDS011;32223;53.654;10.014;2023-01-31T17:33:08;14.57;;;3.85;;
46507;SDS011;32223;53.654;10.014;2023-01-31T17:35:38;30.67;;;5.15;;
46507;SDS011;32223;53.654;10.014;2023-01-31T17:38:05;21.80;;;4.50;;
46507;SDS011;32223;53.654;10.014;2023-01-31T17:40:31;19.15;;;3.85;;